Ana Sayfa
METAR-TAF:

METAR-TAF

Havaalanları :

Harbin Taiping Uluslararası Havalimanı

Harbin, Çin

Enlem: 45-45N, Boylam: 126-46E, yükseklik: 143 m

Güncel hava durumu gözlemi

Rapor saat 08:00 UTC de 45 dakika önce yapıldı.
Rüzgar güneydan 6 kt
Sıcaklık -9°C
Nem 73%
Basınç 1029 hPa
Görüş mesafesi: 8000 m

METAR: ZYHB 140800Z 18003MPS 8000 NSC M09/M13 Q1029 NOSIG

Saat: 16:45 (08:45 UTC)

Tahmin

Rapor saat 03:30 UTC de 5 saat ve 15 dakika önce yapıldı.
Ayın 14'si saat 06 UTC'den ayın 15'si saat 06 UTC'ye kadar geçerli Tahmin
Rüzgar güney/güneybatıdan 8 kt
Görüş mesafesi: 6000 m
3000 ft yükseklikte parçalı bulutlu

TAF: ZYHB 140330Z 1406/1506 20004MPS 6000 SCT030 TXM05/06Z TNM13/22Z

4.000'den fazla havaalanı için hava durumu gözlemleri ve tahminleri (METAR ve TAF raporları).

Kullanılabilir istasyonlar harita üzerinde sarı ve kırmızı noktalarla gösterilir.

İstasyonun adını görmek için fareyi noktanın üzerinde gezdirin.

Sonrasında hava gözlem ve tahminlerini görmek için tıklayın.

Haritayı değiştirmek için: yaklaştırmak için siyah artı işaretli yeşil düğmeye ve uzaklaştırmak için de eksi işaretli düğmeye hızla tıklayın; bitişik haritalar için yeşil okları kullanın.


METAR-TAF: